createdAt,value
2023-03-20T00:01:28.698Z,2.20
2023-03-20T00:03:57.197Z,1.57
2023-03-20T00:06:26.690Z,1.80
2023-03-20T00:08:54.962Z,1.73
2023-03-20T00:11:30.873Z,1.90
2023-03-20T00:14:04.394Z,1.60
2023-03-20T00:16:34.476Z,2.10
2023-03-20T00:19:03.203Z,1.53
2023-03-20T00:21:30.790Z,1.93
2023-03-20T00:23:57.715Z,1.87
2023-03-20T00:26:33.361Z,1.47
2023-03-20T00:29:01.703Z,1.80
2023-03-20T00:31:35.422Z,2.30
2023-03-20T00:34:06.376Z,1.70
2023-03-20T00:36:33.530Z,2.60
2023-03-20T00:39:00.700Z,2.90
2023-03-20T00:41:32.010Z,2.70
2023-03-20T00:44:13.832Z,3.20
2023-03-20T00:46:40.870Z,2.33
2023-03-20T00:49:11.758Z,3.60
2023-03-20T00:51:39.624Z,3.60
2023-03-20T00:54:14.416Z,2.87
2023-03-20T00:57:02.680Z,3.27
2023-03-20T00:59:37.989Z,2.60
2023-03-20T01:02:05.007Z,2.50
2023-03-20T01:04:38.156Z,2.50
2023-03-20T01:07:06.832Z,3.40
2023-03-20T01:09:34.022Z,2.80
2023-03-20T01:12:02.394Z,1.90
2023-03-20T01:14:29.703Z,2.77
2023-03-20T01:16:56.882Z,2.47
2023-03-20T01:19:23.914Z,3.33
2023-03-20T01:21:51.561Z,3.03
2023-03-20T01:24:18.514Z,2.70
2023-03-20T01:26:46.414Z,2.83
2023-03-20T01:29:22.872Z,2.83
2023-03-20T01:31:50.871Z,2.53
2023-03-20T01:34:18.625Z,2.50
2023-03-20T01:36:50.046Z,2.30
2023-03-20T01:39:19.315Z,3.13
2023-03-20T01:41:47.090Z,3.30
2023-03-20T01:44:28.686Z,2.77
2023-03-20T01:46:56.110Z,2.80
2023-03-20T01:49:23.026Z,2.83
2023-03-20T01:51:51.766Z,3.07
2023-03-20T01:54:28.372Z,2.90
2023-03-20T01:56:58.392Z,2.37
2023-03-20T01:59:28.349Z,2.10
2023-03-20T02:01:56.303Z,3.20
2023-03-20T02:04:29.849Z,2.70
2023-03-20T02:06:57.235Z,2.20
2023-03-20T02:09:24.150Z,2.87
2023-03-20T02:11:53.528Z,2.87
2023-03-20T02:14:21.454Z,2.67
2023-03-20T02:16:48.834Z,2.40
2023-03-20T02:19:39.497Z,2.00
2023-03-20T02:22:30.506Z,2.30
2023-03-20T02:25:20.264Z,2.73
2023-03-20T02:28:24.822Z,1.77
2023-03-20T02:31:07.282Z,2.33
2023-03-20T02:34:10.300Z,2.57
2023-03-20T02:37:17.774Z,3.27
2023-03-20T02:40:16.119Z,2.10
2023-03-20T02:42:55.150Z,2.63
2023-03-20T02:45:34.763Z,3.10
2023-03-20T02:48:21.117Z,2.33
2023-03-20T02:51:16.540Z,2.50
2023-03-20T02:53:49.090Z,2.23
2023-03-20T02:56:30.526Z,2.00
2023-03-20T02:59:12.383Z,1.90
2023-03-20T03:01:46.340Z,1.90
2023-03-20T03:04:18.396Z,2.20
2023-03-20T03:06:49.306Z,2.30
2023-03-20T03:09:29.560Z,1.73
2023-03-20T03:12:03.131Z,2.10
2023-03-20T03:14:40.997Z,2.53
2023-03-20T03:17:10.473Z,2.23
2023-03-20T03:19:41.936Z,1.70
2023-03-20T03:22:08.893Z,2.17
2023-03-20T03:24:48.060Z,2.77
2023-03-20T03:27:23.650Z,2.17
2023-03-20T03:29:55.635Z,3.27
2023-03-20T03:32:28.094Z,4.77
2023-03-20T03:34:56.490Z,4.57
2023-03-20T03:37:40.047Z,5.47
2023-03-20T03:40:14.587Z,4.30
2023-03-20T03:42:51.724Z,4.30
2023-03-20T03:45:42.421Z,4.60
2023-03-20T03:48:17.114Z,4.33
2023-03-20T03:50:53.145Z,4.63
2023-03-20T03:53:25.198Z,5.00
2023-03-20T03:55:57.655Z,6.20
2023-03-20T03:58:42.880Z,6.73
2023-03-20T04:01:12.503Z,7.83
2023-03-20T04:03:43.669Z,8.23
2023-03-20T04:06:15.925Z,8.60
2023-03-20T04:08:43.554Z,8.67
2023-03-20T04:11:18.768Z,9.77
2023-03-20T04:13:48.539Z,9.33
2023-03-20T04:16:17.034Z,8.67
2023-03-20T04:18:45.179Z,7.83
2023-03-20T04:21:12.119Z,8.50
2023-03-20T04:23:39.475Z,8.53
2023-03-20T04:26:06.799Z,8.23
2023-03-20T04:28:33.874Z,10.50
2023-03-20T04:31:02.278Z,10.03
2023-03-20T04:33:29.528Z,9.87
2023-03-20T04:35:57.048Z,11.00
2023-03-20T04:38:24.601Z,11.43
2023-03-20T04:40:52.320Z,10.93
2023-03-20T04:43:19.260Z,10.80
2023-03-20T04:45:46.351Z,11.73
2023-03-20T04:48:13.449Z,11.10
2023-03-20T04:50:40.612Z,13.13
2023-03-20T04:53:07.820Z,12.13
2023-03-20T04:55:34.994Z,12.93
2023-03-20T04:58:02.125Z,13.70
2023-03-20T05:00:29.126Z,14.77
2023-03-20T05:02:56.084Z,15.30
2023-03-20T05:05:23.665Z,16.67
2023-03-20T05:07:51.814Z,16.23
2023-03-20T05:10:19.294Z,16.83
2023-03-20T05:12:47.545Z,15.40
2023-03-20T05:15:14.760Z,17.27
2023-03-20T05:17:41.695Z,16.30
2023-03-20T05:20:09.415Z,15.47
2023-03-20T05:22:36.461Z,22.70
2023-03-20T05:25:03.590Z,16.40
2023-03-20T05:27:31.693Z,15.70
2023-03-20T05:29:58.658Z,16.40
2023-03-20T05:32:25.598Z,15.50
2023-03-20T05:34:52.926Z,15.90
2023-03-20T05:37:19.871Z,17.77
2023-03-20T05:39:46.837Z,17.50
2023-03-20T05:42:13.753Z,19.20
2023-03-20T05:44:41.097Z,17.57
2023-03-20T05:47:08.048Z,16.43
2023-03-20T05:49:34.950Z,15.40
2023-03-20T05:52:01.887Z,18.20
2023-03-20T05:54:28.826Z,16.97
2023-03-20T05:56:58.917Z,14.73
2023-03-20T05:59:26.089Z,15.93
2023-03-20T06:01:53.005Z,19.13
2023-03-20T06:04:19.928Z,16.70
2023-03-20T06:06:46.854Z,19.27
2023-03-20T06:09:13.748Z,16.90
2023-03-20T06:11:40.693Z,17.47
2023-03-20T06:14:07.598Z,17.37
2023-03-20T06:16:34.524Z,17.77
2023-03-20T06:19:01.588Z,17.93
2023-03-20T06:21:28.515Z,17.43
2023-03-20T06:23:55.497Z,18.00
2023-03-20T06:26:22.379Z,19.67
2023-03-20T06:28:49.396Z,18.87
2023-03-20T06:31:16.917Z,18.77
2023-03-20T06:33:44.383Z,17.33
2023-03-20T06:36:12.238Z,20.97
2023-03-20T06:38:39.235Z,19.33
2023-03-20T06:41:06.907Z,19.53
2023-03-20T06:43:33.816Z,18.27
2023-03-20T06:46:00.884Z,18.77
2023-03-20T06:48:27.933Z,25.40
2023-03-20T06:50:54.898Z,18.70
2023-03-20T06:53:22.457Z,18.77
2023-03-20T06:55:51.586Z,18.23
2023-03-20T06:58:18.893Z,17.07
2023-03-20T07:00:46.717Z,17.30
2023-03-20T07:03:13.697Z,18.10
2023-03-20T07:05:41.353Z,17.87
2023-03-20T07:08:08.361Z,16.90
2023-03-20T07:10:35.823Z,17.47
2023-03-20T07:13:02.804Z,16.43
2023-03-20T07:15:30.155Z,17.87
2023-03-20T07:17:57.233Z,18.73
2023-03-20T07:20:24.152Z,17.87
2023-03-20T07:22:51.146Z,16.60
2023-03-20T07:25:26.159Z,16.93
2023-03-20T07:27:59.116Z,17.67
2023-03-20T07:30:26.266Z,18.43
2023-03-20T07:32:53.612Z,17.83
2023-03-20T07:35:20.656Z,19.83
2023-03-20T07:37:47.630Z,18.00
2023-03-20T07:40:14.681Z,19.80
2023-03-20T07:42:41.788Z,19.47
2023-03-20T07:45:09.335Z,19.50
2023-03-20T07:47:36.929Z,19.37
2023-03-20T07:50:05.759Z,17.60
2023-03-20T07:52:34.691Z,19.20
2023-03-20T07:55:01.627Z,18.60
2023-03-20T07:57:30.876Z,18.53
2023-03-20T07:59:57.813Z,21.17
2023-03-20T08:02:24.743Z,19.70
2023-03-20T08:04:51.689Z,19.97
2023-03-20T08:07:18.845Z,21.37
2023-03-20T08:09:45.978Z,21.87
2023-03-20T08:12:13.320Z,19.63
2023-03-20T08:14:40.502Z,18.90
2023-03-20T08:17:14.909Z,18.60
2023-03-20T08:19:42.104Z,19.07
2023-03-20T08:22:09.107Z,18.97
2023-03-20T08:24:36.088Z,18.53
2023-03-20T08:27:03.263Z,18.53
2023-03-20T08:29:30.194Z,21.27
2023-03-20T08:31:57.730Z,19.00
2023-03-20T08:34:24.739Z,20.07
2023-03-20T08:36:52.637Z,19.80
2023-03-20T08:39:19.558Z,22.97
2023-03-20T08:41:46.579Z,19.73
2023-03-20T08:44:13.973Z,19.90
2023-03-20T08:46:40.912Z,20.93
2023-03-20T08:49:07.835Z,32.53
2023-03-20T08:51:34.796Z,20.17
2023-03-20T08:54:01.695Z,18.53
2023-03-20T08:56:28.748Z,18.20
2023-03-20T08:58:56.130Z,18.73
2023-03-20T09:01:23.399Z,17.17
2023-03-20T09:03:50.441Z,17.53
2023-03-20T09:06:17.392Z,15.80
2023-03-20T09:08:44.359Z,16.90
2023-03-20T09:11:11.385Z,17.00
2023-03-20T09:13:38.381Z,19.07
2023-03-20T09:16:06.548Z,18.77
2023-03-20T09:18:33.633Z,20.33
2023-03-20T09:21:01.126Z,18.37
2023-03-20T09:23:28.032Z,18.30
2023-03-20T09:25:55.006Z,17.80
2023-03-20T09:28:22.067Z,17.60
2023-03-20T09:30:49.116Z,18.03
2023-03-20T09:33:16.566Z,19.07
2023-03-20T09:35:44.055Z,19.07
2023-03-20T09:38:12.179Z,20.33
2023-03-20T09:40:52.901Z,24.43
2023-03-20T09:43:54.313Z,18.67
2023-03-20T09:46:56.844Z,19.17
2023-03-20T09:49:33.742Z,19.23
2023-03-20T09:52:09.242Z,18.63
2023-03-20T09:54:53.952Z,22.83
2023-03-20T09:57:29.049Z,19.20
2023-03-20T10:00:01.646Z,19.00
2023-03-20T10:03:01.944Z,18.43
2023-03-20T10:06:08.720Z,18.63
2023-03-20T10:08:38.720Z,18.53
2023-03-20T10:11:08.402Z,18.20
2023-03-20T10:13:35.418Z,15.87
2023-03-20T10:16:32.106Z,18.40
2023-03-20T10:19:22.844Z,17.57
2023-03-20T10:21:57.404Z,17.07
2023-03-20T10:24:41.768Z,18.27
2023-03-20T10:27:26.179Z,18.30
2023-03-20T10:30:00.567Z,18.73
2023-03-20T10:32:38.688Z,19.40
2023-03-20T10:35:17.614Z,17.93
2023-03-20T10:38:13.694Z,20.33
2023-03-20T10:40:42.324Z,19.27
2023-03-20T10:43:17.979Z,19.83
2023-03-20T10:45:59.097Z,19.77
2023-03-20T10:48:40.748Z,18.33
2023-03-20T10:51:14.838Z,20.50
2023-03-20T10:53:49.489Z,18.43
2023-03-20T10:56:30.268Z,19.40
2023-03-20T10:59:08.666Z,18.77
2023-03-20T11:01:36.116Z,19.47
2023-03-20T11:04:03.564Z,19.90
2023-03-20T11:06:42.206Z,21.77
2023-03-20T11:09:19.176Z,19.43
2023-03-20T11:11:48.213Z,19.43
2023-03-20T11:14:23.912Z,25.10
2023-03-20T11:16:56.299Z,22.47
2023-03-20T11:19:24.157Z,23.47
2023-03-20T11:21:56.607Z,23.93
2023-03-20T11:24:33.988Z,26.80
2023-03-20T11:27:14.319Z,25.47
2023-03-20T11:29:45.201Z,24.50
2023-03-20T11:32:31.830Z,26.07
2023-03-20T11:35:10.469Z,26.90
2023-03-20T11:37:44.927Z,29.13
2023-03-20T11:40:34.859Z,27.20
2023-03-20T11:43:01.930Z,26.07
2023-03-20T11:45:44.518Z,31.37
2023-03-20T11:48:23.784Z,23.83
2023-03-20T11:51:04.311Z,22.73
2023-03-20T11:53:39.507Z,25.43
2023-03-20T11:56:21.323Z,17.50
2023-03-20T11:59:03.405Z,20.30
2023-03-20T12:01:44.848Z,17.57
2023-03-20T12:04:13.454Z,20.13
2023-03-20T12:06:51.259Z,17.13
2023-03-20T12:09:26.894Z,15.17
2023-03-20T12:12:07.342Z,13.77
2023-03-20T12:14:52.241Z,14.20
2023-03-20T12:17:32.062Z,13.90
2023-03-20T12:20:26.001Z,14.10
2023-03-20T12:23:13.133Z,11.97
2023-03-20T12:26:07.581Z,11.40
2023-03-20T12:28:54.691Z,11.50
2023-03-20T12:31:33.484Z,11.27
2023-03-20T12:34:10.674Z,11.00
2023-03-20T12:36:43.602Z,12.03
2023-03-20T12:39:20.061Z,11.50
2023-03-20T12:41:59.670Z,10.70
2023-03-20T12:44:49.758Z,11.23
2023-03-20T12:47:39.636Z,10.43
2023-03-20T12:50:31.544Z,17.30
2023-03-20T12:53:13.505Z,10.60
2023-03-20T12:55:51.466Z,11.77
2023-03-20T12:58:43.475Z,10.83
2023-03-20T13:01:19.648Z,10.50
2023-03-20T13:03:52.902Z,11.93
2023-03-20T13:06:48.508Z,10.73
2023-03-20T13:09:37.674Z,11.00
2023-03-20T13:12:28.937Z,13.23
2023-03-20T13:15:22.694Z,11.83
2023-03-20T13:18:19.999Z,10.30
2023-03-20T13:20:55.310Z,17.03
2023-03-20T13:23:30.819Z,10.37
2023-03-20T13:26:23.047Z,11.00
2023-03-20T13:29:15.651Z,12.03
2023-03-20T13:32:10.708Z,11.63
2023-03-20T13:35:17.575Z,12.63
2023-03-20T13:37:50.574Z,10.97
2023-03-20T13:40:47.483Z,10.20
2023-03-20T13:43:20.581Z,10.70
2023-03-20T13:45:52.056Z,10.03
2023-03-20T13:48:27.114Z,10.73
2023-03-20T13:51:06.275Z,11.40
2023-03-20T13:53:48.448Z,10.97
2023-03-20T13:56:33.561Z,10.23
2023-03-20T13:59:05.799Z,11.13
2023-03-20T14:01:45.630Z,10.30
2023-03-20T14:04:19.676Z,10.90
2023-03-20T14:06:55.840Z,10.87
2023-03-20T14:09:34.823Z,10.87
2023-03-20T14:12:11.852Z,10.63
2023-03-20T14:14:57.377Z,10.00
2023-03-20T14:17:32.157Z,11.13
2023-03-20T14:20:13.804Z,9.73
2023-03-20T14:22:40.995Z,9.97
2023-03-20T14:25:15.769Z,8.80
2023-03-20T14:27:58.105Z,11.37
2023-03-20T14:30:31.066Z,10.17
2023-03-20T14:33:05.564Z,8.97
2023-03-20T14:35:38.751Z,20.23
2023-03-20T14:38:11.830Z,9.23
2023-03-20T14:40:49.876Z,11.10
2023-03-20T14:43:47.286Z,11.23
2023-03-20T14:46:22.707Z,9.60
2023-03-20T14:48:53.522Z,10.17
2023-03-20T14:51:20.377Z,33.97
2023-03-20T14:54:17.533Z,9.77
2023-03-20T14:56:44.530Z,11.03
2023-03-20T14:59:12.616Z,10.23
2023-03-20T15:01:39.575Z,10.37
2023-03-20T15:04:20.541Z,14.83
2023-03-20T15:07:01.622Z,9.07
2023-03-20T15:09:31.181Z,10.67
2023-03-20T15:12:05.394Z,9.70
2023-03-20T15:14:41.601Z,12.40
2023-03-20T15:17:18.690Z,9.07
2023-03-20T15:19:45.644Z,18.93
2023-03-20T15:22:17.305Z,8.13
2023-03-20T15:24:52.679Z,8.03
2023-03-20T15:27:20.640Z,9.53
2023-03-20T15:29:52.053Z,7.47
2023-03-20T15:32:19.818Z,10.10
2023-03-20T15:34:49.624Z,12.17
2023-03-20T15:37:20.896Z,10.97
2023-03-20T15:39:51.629Z,10.97
2023-03-20T15:42:24.401Z,10.10
2023-03-20T15:44:53.869Z,9.67
2023-03-20T15:47:23.844Z,9.80
2023-03-20T15:49:55.037Z,9.27
2023-03-20T15:52:28.636Z,10.23
2023-03-20T15:54:58.123Z,9.33
2023-03-20T15:57:35.707Z,8.43
2023-03-20T16:00:11.306Z,8.90
2023-03-20T16:02:38.463Z,9.67
2023-03-20T16:05:12.693Z,8.47
2023-03-20T16:07:39.874Z,8.70
2023-03-20T16:10:28.298Z,8.23
2023-03-20T16:12:56.659Z,7.97
2023-03-20T16:15:31.515Z,12.43
2023-03-20T16:18:01.598Z,7.10
2023-03-20T16:20:39.594Z,7.37
2023-03-20T16:23:09.209Z,6.80
2023-03-20T16:25:37.975Z,6.50
2023-03-20T16:28:08.736Z,6.33
2023-03-20T16:30:36.799Z,6.30
2023-03-20T16:33:15.702Z,6.87
2023-03-20T16:35:45.593Z,5.67
2023-03-20T16:38:32.769Z,5.50
2023-03-20T16:41:24.825Z,5.87
2023-03-20T16:43:51.984Z,5.20
2023-03-20T16:46:24.079Z,4.73
2023-03-20T16:48:56.431Z,4.57
2023-03-20T16:51:30.167Z,4.43
2023-03-20T16:54:01.281Z,5.37
2023-03-20T16:56:40.410Z,4.57
2023-03-20T16:59:09.296Z,4.10
2023-03-20T17:01:42.008Z,4.80
2023-03-20T17:04:45.740Z,5.10
2023-03-20T17:07:20.662Z,5.73
2023-03-20T17:10:18.576Z,7.83
2023-03-20T17:12:48.293Z,4.03
2023-03-20T17:15:17.303Z,4.93
2023-03-20T17:17:44.842Z,6.87
2023-03-20T17:20:20.802Z,6.43
2023-03-20T17:22:48.209Z,9.70
2023-03-20T17:25:15.617Z,5.30
2023-03-20T17:27:42.609Z,24.23
2023-03-20T17:30:17.233Z,6.03
2023-03-20T17:32:44.236Z,6.50
2023-03-20T17:35:11.429Z,6.63
2023-03-20T17:37:38.897Z,6.50
2023-03-20T17:40:07.691Z,12.17
2023-03-20T17:42:34.585Z,8.07
2023-03-20T17:45:03.609Z,20.37
2023-03-20T17:47:30.961Z,9.87
2023-03-20T17:49:58.242Z,7.07
2023-03-20T17:52:27.789Z,6.40
2023-03-20T17:54:54.932Z,6.33
2023-03-20T17:57:42.297Z,6.43
2023-03-20T18:00:19.411Z,6.53
2023-03-20T18:02:46.744Z,6.40
2023-03-20T18:05:13.839Z,7.70
2023-03-20T18:07:41.433Z,8.33
2023-03-20T18:10:20.574Z,7.30
2023-03-20T18:12:47.597Z,7.40
2023-03-20T18:15:14.698Z,6.57
2023-03-20T18:17:41.607Z,7.23
2023-03-20T18:20:29.170Z,6.63
2023-03-20T18:22:56.389Z,6.43
2023-03-20T18:25:25.848Z,7.07
2023-03-20T18:27:57.737Z,6.63
2023-03-20T18:30:33.669Z,5.73
2023-03-20T18:33:01.303Z,5.83
2023-03-20T18:35:28.408Z,5.60
2023-03-20T18:37:55.774Z,5.77
2023-03-20T18:40:28.811Z,6.07
2023-03-20T18:42:57.585Z,6.57
2023-03-20T18:45:27.050Z,6.53
2023-03-20T18:47:55.139Z,6.43
2023-03-20T18:50:38.017Z,6.13
2023-03-20T18:53:07.348Z,6.30
2023-03-20T18:55:35.228Z,6.27
2023-03-20T18:58:06.198Z,9.10
2023-03-20T19:00:42.629Z,5.20
2023-03-20T19:03:11.069Z,5.90
2023-03-20T19:05:38.530Z,5.33
2023-03-20T19:08:05.692Z,4.73
2023-03-20T19:10:39.125Z,4.13
2023-03-20T19:13:07.492Z,3.90
2023-03-20T19:15:36.693Z,9.00
2023-03-20T19:18:05.862Z,3.53
2023-03-20T19:20:40.419Z,4.03
2023-03-20T19:23:09.828Z,3.60
2023-03-20T19:25:37.964Z,3.83
2023-03-20T19:28:05.620Z,3.60
2023-03-20T19:30:39.976Z,3.80
2023-03-20T19:33:07.305Z,3.53
2023-03-20T19:38:22.975Z,4.00
2023-03-20T19:40:52.988Z,3.83
2023-03-20T19:43:24.290Z,4.57
2023-03-20T19:45:57.191Z,3.63
2023-03-20T19:48:50.537Z,3.53
2023-03-20T19:51:22.551Z,3.00
2023-03-20T19:53:50.753Z,3.33
2023-03-20T19:56:20.462Z,4.33
2023-03-20T19:58:47.739Z,3.73
2023-03-20T20:01:24.200Z,3.20
2023-03-20T20:03:53.566Z,3.10
2023-03-20T20:06:22.308Z,3.57
2023-03-20T20:08:50.525Z,3.70
2023-03-20T20:11:18.863Z,4.40
2023-03-20T20:14:07.071Z,3.53
2023-03-20T20:16:35.721Z,3.97
2023-03-20T20:19:03.541Z,3.03
2023-03-20T20:24:17.503Z,6.60
2023-03-20T20:26:54.876Z,6.37
2023-03-20T20:29:27.041Z,4.13
2023-03-20T20:31:54.018Z,7.97
2023-03-20T20:39:54.828Z,3.40
2023-03-20T20:42:22.862Z,3.77
2023-03-20T20:44:50.151Z,3.30
2023-03-20T20:47:17.724Z,4.67
2023-03-20T20:49:47.173Z,3.17
2023-03-20T20:52:15.686Z,4.27
2023-03-20T20:54:42.658Z,3.63
2023-03-20T20:57:14.219Z,3.90
2023-03-20T20:59:41.509Z,3.70
2023-03-20T21:02:15.368Z,6.43
2023-03-20T21:04:43.510Z,3.40
2023-03-20T21:07:13.038Z,3.30
2023-03-20T21:09:40.867Z,13.10
2023-03-20T21:12:10.404Z,3.70
2023-03-20T21:14:37.809Z,3.57
2023-03-20T21:17:05.916Z,3.63
2023-03-20T21:19:37.070Z,4.07
2023-03-20T21:22:05.343Z,25.80
2023-03-20T21:24:34.304Z,4.00
2023-03-20T21:27:07.949Z,4.10
2023-03-20T21:29:34.942Z,6.43
2023-03-20T21:32:01.892Z,3.77
2023-03-20T21:34:29.094Z,3.90
2023-03-20T21:36:57.891Z,4.07
2023-03-20T21:39:28.352Z,4.93
2023-03-20T21:41:55.398Z,4.30
2023-03-20T21:45:03.002Z,4.40
2023-03-20T21:48:04.015Z,4.30
2023-03-20T21:53:17.881Z,9.43
2023-03-20T21:56:31.061Z,5.20
2023-03-20T22:01:49.430Z,29.93
2023-03-20T22:13:07.364Z,5.03
2023-03-20T22:18:28.556Z,8.50
2023-03-20T22:21:29.759Z,5.20
2023-03-20T22:24:12.568Z,5.13
2023-03-20T22:32:35.015Z,4.87
2023-03-20T22:38:21.867Z,5.53
2023-03-20T22:40:53.607Z,6.73
2023-03-20T22:44:02.424Z,5.30
2023-03-20T22:45:52.693Z,6.90
2023-03-20T22:48:26.796Z,5.90
2023-03-20T22:50:53.728Z,5.40
2023-03-20T22:53:20.642Z,5.40
2023-03-20T22:55:50.936Z,5.53
2023-03-20T22:58:18.051Z,5.33
2023-03-20T23:00:45.568Z,4.93
2023-03-20T23:03:26.147Z,5.10
2023-03-20T23:05:56.809Z,4.53
2023-03-20T23:08:24.768Z,4.47
2023-03-20T23:10:52.042Z,4.73
2023-03-20T23:13:20.313Z,4.20
2023-03-20T23:15:47.847Z,5.00
2023-03-20T23:18:15.341Z,4.37
2023-03-20T23:20:42.320Z,5.20
2023-03-20T23:23:09.439Z,4.20
2023-03-20T23:25:39.685Z,3.90
2023-03-20T23:28:08.851Z,4.03
2023-03-20T23:30:49.775Z,4.70
2023-03-20T23:33:18.753Z,4.50
2023-03-20T23:35:46.223Z,4.73
2023-03-20T23:38:13.152Z,3.67
2023-03-20T23:40:40.307Z,3.90
2023-03-20T23:43:07.472Z,4.33
2023-03-20T23:45:34.412Z,3.83
2023-03-20T23:48:01.379Z,4.13
2023-03-20T23:50:39.624Z,3.67
2023-03-20T23:53:19.828Z,3.60
2023-03-20T23:55:50.069Z,3.97
2023-03-20T23:58:17.738Z,3.63
